sensor_id;sensor_type;location;lat;lon;timestamp;P1;durP1;ratioP1;P2;durP2;ratioP2
11328;SDS011;5719;42.714;23.732;2023-04-06T00:00:56;15.63;;;10.63;;
11328;SDS011;5719;42.714;23.732;2023-04-06T00:03:24;16.60;;;10.45;;
11328;SDS011;5719;42.714;23.732;2023-04-06T00:05:51;18.02;;;11.30;;
11328;SDS011;5719;42.714;23.732;2023-04-06T00:08:18;16.23;;;10.07;;
11328;SDS011;5719;42.714;23.732;2023-04-06T00:10:46;18.50;;;11.50;;
11328;SDS011;5719;42.714;23.732;2023-04-06T00:13:13;23.80;;;13.25;;
11328;SDS011;5719;42.714;23.732;2023-04-06T00:15:40;19.10;;;11.40;;
11328;SDS011;5719;42.714;23.732;2023-04-06T00:18:07;22.10;;;14.20;;
11328;SDS011;5719;42.714;23.732;2023-04-06T00:20:35;20.30;;;11.77;;
11328;SDS011;5719;42.714;23.732;2023-04-06T00:23:02;18.77;;;11.30;;
11328;SDS011;5719;42.714;23.732;2023-04-06T00:25:29;16.98;;;11.25;;
11328;SDS011;5719;42.714;23.732;2023-04-06T00:27:56;19.10;;;11.50;;
11328;SDS011;5719;42.714;23.732;2023-04-06T00:30:23;23.45;;;12.70;;
11328;SDS011;5719;42.714;23.732;2023-04-06T00:32:50;21.25;;;12.32;;
11328;SDS011;5719;42.714;23.732;2023-04-06T00:35:17;17.83;;;11.85;;
11328;SDS011;5719;42.714;23.732;2023-04-06T00:37:47;18.50;;;11.70;;
11328;SDS011;5719;42.714;23.732;2023-04-06T00:40:14;21.17;;;12.40;;
11328;SDS011;5719;42.714;23.732;2023-04-06T00:42:41;23.67;;;13.05;;
11328;SDS011;5719;42.714;23.732;2023-04-06T00:45:08;21.42;;;13.52;;
11328;SDS011;5719;42.714;23.732;2023-04-06T00:47:36;20.65;;;12.75;;
11328;SDS011;5719;42.714;23.732;2023-04-06T00:50:04;17.15;;;11.73;;
11328;SDS011;5719;42.714;23.732;2023-04-06T00:52:31;23.10;;;12.68;;
11328;SDS011;5719;42.714;23.732;2023-04-06T00:55:00;20.73;;;12.90;;
11328;SDS011;5719;42.714;23.732;2023-04-06T00:57:27;19.60;;;12.60;;
11328;SDS011;5719;42.714;23.732;2023-04-06T00:59:54;19.05;;;12.35;;
11328;SDS011;5719;42.714;23.732;2023-04-06T01:02:23;18.42;;;11.95;;
11328;SDS011;5719;42.714;23.732;2023-04-06T01:04:50;24.05;;;12.68;;
11328;SDS011;5719;42.714;23.732;2023-04-06T01:07:17;21.50;;;12.35;;
11328;SDS011;5719;42.714;23.732;2023-04-06T01:09:44;18.85;;;11.90;;
11328;SDS011;5719;42.714;23.732;2023-04-06T01:12:13;19.38;;;12.73;;
11328;SDS011;5719;42.714;23.732;2023-04-06T01:14:40;18.30;;;11.60;;
11328;SDS011;5719;42.714;23.732;2023-04-06T01:17:06;21.95;;;12.48;;
11328;SDS011;5719;42.714;23.732;2023-04-06T01:19:33;17.95;;;11.60;;
11328;SDS011;5719;42.714;23.732;2023-04-06T01:22:00;17.90;;;11.07;;
11328;SDS011;5719;42.714;23.732;2023-04-06T01:24:29;18.17;;;12.15;;
11328;SDS011;5719;42.714;23.732;2023-04-06T01:26:56;19.05;;;12.38;;
11328;SDS011;5719;42.714;23.732;2023-04-06T01:29:23;21.05;;;12.20;;
11328;SDS011;5719;42.714;23.732;2023-04-06T01:31:50;16.50;;;11.27;;
11328;SDS011;5719;42.714;23.732;2023-04-06T01:34:17;17.05;;;11.27;;
11328;SDS011;5719;42.714;23.732;2023-04-06T01:36:43;18.33;;;12.10;;
11328;SDS011;5719;42.714;23.732;2023-04-06T01:39:10;17.70;;;11.80;;
11328;SDS011;5719;42.714;23.732;2023-04-06T01:41:39;19.00;;;11.27;;
11328;SDS011;5719;42.714;23.732;2023-04-06T01:44:06;19.02;;;12.50;;
11328;SDS011;5719;42.714;23.732;2023-04-06T01:46:32;18.58;;;11.90;;
11328;SDS011;5719;42.714;23.732;2023-04-06T01:48:59;22.88;;;13.13;;
11328;SDS011;5719;42.714;23.732;2023-04-06T01:51:26;18.15;;;12.02;;
11328;SDS011;5719;42.714;23.732;2023-04-06T01:53:53;21.02;;;14.00;;
11328;SDS011;5719;42.714;23.732;2023-04-06T01:56:20;21.50;;;12.73;;
11328;SDS011;5719;42.714;23.732;2023-04-06T01:58:48;20.80;;;13.05;;
11328;SDS011;5719;42.714;23.732;2023-04-06T02:01:15;24.35;;;13.85;;
11328;SDS011;5719;42.714;23.732;2023-04-06T02:03:42;22.58;;;13.15;;
11328;SDS011;5719;42.714;23.732;2023-04-06T02:06:09;23.92;;;14.02;;
11328;SDS011;5719;42.714;23.732;2023-04-06T02:08:36;20.70;;;12.30;;
11328;SDS011;5719;42.714;23.732;2023-04-06T02:11:03;20.33;;;12.98;;
11328;SDS011;5719;42.714;23.732;2023-04-06T02:13:30;21.75;;;13.82;;
11328;SDS011;5719;42.714;23.732;2023-04-06T02:15:58;18.73;;;12.65;;
11328;SDS011;5719;42.714;23.732;2023-04-06T02:18:27;23.48;;;13.63;;
11328;SDS011;5719;42.714;23.732;2023-04-06T02:20:54;20.75;;;12.63;;
11328;SDS011;5719;42.714;23.732;2023-04-06T02:23:21;20.52;;;13.52;;
11328;SDS011;5719;42.714;23.732;2023-04-06T02:25:48;21.90;;;14.20;;
11328;SDS011;5719;42.714;23.732;2023-04-06T02:28:15;22.90;;;13.38;;
11328;SDS011;5719;42.714;23.732;2023-04-06T02:30:42;21.23;;;13.85;;
11328;SDS011;5719;42.714;23.732;2023-04-06T02:33:11;21.90;;;13.65;;
11328;SDS011;5719;42.714;23.732;2023-04-06T02:35:37;23.00;;;14.60;;
11328;SDS011;5719;42.714;23.732;2023-04-06T02:38:04;21.00;;;13.75;;
11328;SDS011;5719;42.714;23.732;2023-04-06T02:40:31;20.27;;;12.93;;
11328;SDS011;5719;42.714;23.732;2023-04-06T02:42:58;20.58;;;13.00;;
11328;SDS011;5719;42.714;23.732;2023-04-06T02:45:25;23.67;;;14.02;;
11328;SDS011;5719;42.714;23.732;2023-04-06T02:47:52;23.60;;;14.10;;
11328;SDS011;5719;42.714;23.732;2023-04-06T02:50:21;23.30;;;14.40;;
11328;SDS011;5719;42.714;23.732;2023-04-06T02:52:47;23.27;;;15.30;;
11328;SDS011;5719;42.714;23.732;2023-04-06T02:55:14;24.58;;;14.30;;
11328;SDS011;5719;42.714;23.732;2023-04-06T02:57:41;25.58;;;15.23;;
11328;SDS011;5719;42.714;23.732;2023-04-06T03:00:09;25.23;;;15.43;;
11328;SDS011;5719;42.714;23.732;2023-04-06T03:02:37;25.55;;;15.02;;
11328;SDS011;5719;42.714;23.732;2023-04-06T03:05:04;23.67;;;15.32;;
11328;SDS011;5719;42.714;23.732;2023-04-06T03:07:32;24.50;;;14.38;;
11328;SDS011;5719;42.714;23.732;2023-04-06T03:09:59;23.45;;;15.02;;
11328;SDS011;5719;42.714;23.732;2023-04-06T03:12:26;27.27;;;16.92;;
11328;SDS011;5719;42.714;23.732;2023-04-06T03:14:53;24.33;;;15.75;;
11328;SDS011;5719;42.714;23.732;2023-04-06T03:17:20;27.73;;;15.18;;
11328;SDS011;5719;42.714;23.732;2023-04-06T03:19:47;25.95;;;15.73;;
11328;SDS011;5719;42.714;23.732;2023-04-06T03:22:13;24.45;;;15.68;;
11328;SDS011;5719;42.714;23.732;2023-04-06T03:24:42;28.33;;;16.10;;
11328;SDS011;5719;42.714;23.732;2023-04-06T03:27:09;25.42;;;15.70;;
11328;SDS011;5719;42.714;23.732;2023-04-06T03:29:36;27.63;;;15.32;;
11328;SDS011;5719;42.714;23.732;2023-04-06T03:32:03;26.42;;;16.02;;
11328;SDS011;5719;42.714;23.732;2023-04-06T03:34:30;24.73;;;15.00;;
11328;SDS011;5719;42.714;23.732;2023-04-06T03:36:57;27.17;;;16.13;;
11328;SDS011;5719;42.714;23.732;2023-04-06T03:39:24;23.73;;;15.38;;
11328;SDS011;5719;42.714;23.732;2023-04-06T03:41:52;28.42;;;15.98;;
11328;SDS011;5719;42.714;23.732;2023-04-06T03:44:19;28.20;;;15.90;;
11328;SDS011;5719;42.714;23.732;2023-04-06T03:46:46;26.75;;;15.40;;
11328;SDS011;5719;42.714;23.732;2023-04-06T03:49:13;30.65;;;17.50;;
11328;SDS011;5719;42.714;23.732;2023-04-06T03:51:40;29.00;;;18.05;;
11328;SDS011;5719;42.714;23.732;2023-04-06T03:54:07;29.25;;;16.65;;
11328;SDS011;5719;42.714;23.732;2023-04-06T03:56:34;28.65;;;17.30;;
11328;SDS011;5719;42.714;23.732;2023-04-06T03:59:02;24.63;;;15.32;;
11328;SDS011;5719;42.714;23.732;2023-04-06T04:01:29;44.75;;;22.10;;
11328;SDS011;5719;42.714;23.732;2023-04-06T04:03:56;28.33;;;17.20;;
11328;SDS011;5719;42.714;23.732;2023-04-06T04:06:23;26.42;;;16.33;;
11328;SDS011;5719;42.714;23.732;2023-04-06T04:08:50;23.85;;;14.93;;
11328;SDS011;5719;42.714;23.732;2023-04-06T04:11:17;28.50;;;17.98;;
11328;SDS011;5719;42.714;23.732;2023-04-06T04:13:45;31.38;;;17.80;;
11328;SDS011;5719;42.714;23.732;2023-04-06T04:16:13;28.60;;;18.58;;
11328;SDS011;5719;42.714;23.732;2023-04-06T04:18:40;32.13;;;17.52;;
11328;SDS011;5719;42.714;23.732;2023-04-06T04:21:08;29.27;;;17.23;;
11328;SDS011;5719;42.714;23.732;2023-04-06T04:23:35;35.58;;;21.00;;
11328;SDS011;5719;42.714;23.732;2023-04-06T04:26:02;32.42;;;19.20;;
11328;SDS011;5719;42.714;23.732;2023-04-06T04:28:29;26.48;;;16.58;;
11328;SDS011;5719;42.714;23.732;2023-04-06T04:30:56;29.35;;;15.48;;
11328;SDS011;5719;42.714;23.732;2023-04-06T04:33:25;26.85;;;14.82;;
11328;SDS011;5719;42.714;23.732;2023-04-06T04:35:52;30.17;;;15.77;;
11328;SDS011;5719;42.714;23.732;2023-04-06T04:38:19;27.02;;;15.82;;
11328;SDS011;5719;42.714;23.732;2023-04-06T04:40:46;25.42;;;14.63;;
11328;SDS011;5719;42.714;23.732;2023-04-06T04:43:13;26.20;;;15.77;;
11328;SDS011;5719;42.714;23.732;2023-04-06T04:45:40;31.23;;;14.60;;
11328;SDS011;5719;42.714;23.732;2023-04-06T04:48:07;26.65;;;15.52;;
11328;SDS011;5719;42.714;23.732;2023-04-06T04:50:35;28.85;;;16.88;;
11328;SDS011;5719;42.714;23.732;2023-04-06T04:53:02;28.33;;;16.17;;
11328;SDS011;5719;42.714;23.732;2023-04-06T04:55:31;38.35;;;15.93;;
11328;SDS011;5719;42.714;23.732;2023-04-06T04:57:58;35.28;;;16.17;;
11328;SDS011;5719;42.714;23.732;2023-04-06T05:00:25;37.28;;;18.95;;
11328;SDS011;5719;42.714;23.732;2023-04-06T05:02:52;27.92;;;15.95;;
11328;SDS011;5719;42.714;23.732;2023-04-06T05:05:19;26.85;;;15.23;;
11328;SDS011;5719;42.714;23.732;2023-04-06T05:07:47;29.55;;;17.23;;
11328;SDS011;5719;42.714;23.732;2023-04-06T05:10:15;31.30;;;17.27;;
11328;SDS011;5719;42.714;23.732;2023-04-06T05:12:42;29.60;;;17.48;;
11328;SDS011;5719;42.714;23.732;2023-04-06T05:15:09;29.20;;;15.63;;
11328;SDS011;5719;42.714;23.732;2023-04-06T05:17:37;30.85;;;17.83;;
11328;SDS011;5719;42.714;23.732;2023-04-06T05:20:04;29.80;;;17.88;;
11328;SDS011;5719;42.714;23.732;2023-04-06T05:22:32;28.25;;;16.50;;
11328;SDS011;5719;42.714;23.732;2023-04-06T05:25:00;29.42;;;16.63;;
11328;SDS011;5719;42.714;23.732;2023-04-06T05:27:28;27.98;;;15.73;;
11328;SDS011;5719;42.714;23.732;2023-04-06T05:29:55;31.27;;;17.40;;
11328;SDS011;5719;42.714;23.732;2023-04-06T05:32:22;27.75;;;15.57;;
11328;SDS011;5719;42.714;23.732;2023-04-06T05:34:49;26.80;;;16.33;;
11328;SDS011;5719;42.714;23.732;2023-04-06T05:37:17;29.08;;;16.63;;
11328;SDS011;5719;42.714;23.732;2023-04-06T05:39:44;30.23;;;15.55;;
11328;SDS011;5719;42.714;23.732;2023-04-06T05:42:12;30.52;;;17.00;;
11328;SDS011;5719;42.714;23.732;2023-04-06T05:44:40;27.85;;;16.75;;
11328;SDS011;5719;42.714;23.732;2023-04-06T05:47:07;26.92;;;15.45;;
11328;SDS011;5719;42.714;23.732;2023-04-06T05:49:34;23.88;;;14.52;;
11328;SDS011;5719;42.714;23.732;2023-04-06T05:52:02;31.08;;;15.50;;
11328;SDS011;5719;42.714;23.732;2023-04-06T05:54:29;24.98;;;15.63;;
11328;SDS011;5719;42.714;23.732;2023-04-06T05:56:56;27.10;;;13.27;;
11328;SDS011;5719;42.714;23.732;2023-04-06T05:59:24;27.25;;;15.50;;
11328;SDS011;5719;42.714;23.732;2023-04-06T06:01:51;26.63;;;15.15;;
11328;SDS011;5719;42.714;23.732;2023-04-06T06:04:18;27.63;;;16.80;;
11328;SDS011;5719;42.714;23.732;2023-04-06T06:06:45;26.67;;;15.38;;
11328;SDS011;5719;42.714;23.732;2023-04-06T06:09:12;25.55;;;15.50;;
11328;SDS011;5719;42.714;23.732;2023-04-06T06:11:39;28.35;;;15.90;;
11328;SDS011;5719;42.714;23.732;2023-04-06T06:14:07;24.80;;;15.38;;
11328;SDS011;5719;42.714;23.732;2023-04-06T06:16:35;23.60;;;14.68;;
11328;SDS011;5719;42.714;23.732;2023-04-06T06:19:02;25.92;;;14.68;;
11328;SDS011;5719;42.714;23.732;2023-04-06T06:21:29;23.75;;;14.75;;
11328;SDS011;5719;42.714;23.732;2023-04-06T06:23:57;26.17;;;14.90;;
11328;SDS011;5719;42.714;23.732;2023-04-06T06:26:25;25.35;;;14.93;;
11328;SDS011;5719;42.714;23.732;2023-04-06T06:28:52;26.00;;;14.77;;
11328;SDS011;5719;42.714;23.732;2023-04-06T06:31:19;24.38;;;14.27;;
11328;SDS011;5719;42.714;23.732;2023-04-06T06:33:49;27.35;;;15.55;;
11328;SDS011;5719;42.714;23.732;2023-04-06T06:36:16;26.95;;;15.40;;
11328;SDS011;5719;42.714;23.732;2023-04-06T06:38:43;25.63;;;15.65;;
11328;SDS011;5719;42.714;23.732;2023-04-06T06:41:10;30.20;;;16.35;;
11328;SDS011;5719;42.714;23.732;2023-04-06T06:43:37;25.90;;;14.80;;
11328;SDS011;5719;42.714;23.732;2023-04-06T06:46:05;23.70;;;14.32;;
11328;SDS011;5719;42.714;23.732;2023-04-06T06:48:32;23.17;;;13.90;;
11328;SDS011;5719;42.714;23.732;2023-04-06T06:51:00;25.48;;;14.35;;
11328;SDS011;5719;42.714;23.732;2023-04-06T06:53:27;30.00;;;17.65;;
11328;SDS011;5719;42.714;23.732;2023-04-06T06:55:54;23.23;;;13.75;;
11328;SDS011;5719;42.714;23.732;2023-04-06T06:58:21;25.17;;;13.95;;
11328;SDS011;5719;42.714;23.732;2023-04-06T07:00:48;28.58;;;15.68;;
11328;SDS011;5719;42.714;23.732;2023-04-06T07:03:15;26.15;;;14.18;;
11328;SDS011;5719;42.714;23.732;2023-04-06T07:05:45;20.00;;;13.98;;
11328;SDS011;5719;42.714;23.732;2023-04-06T07:08:19;24.10;;;13.65;;
11328;SDS011;5719;42.714;23.732;2023-04-06T07:10:46;23.30;;;14.18;;
11328;SDS011;5719;42.714;23.732;2023-04-06T07:13:14;20.27;;;13.10;;
11328;SDS011;5719;42.714;23.732;2023-04-06T07:15:44;23.73;;;14.48;;
11328;SDS011;5719;42.714;23.732;2023-04-06T07:18:11;29.67;;;15.48;;
11328;SDS011;5719;42.714;23.732;2023-04-06T07:20:38;25.63;;;14.38;;
11328;SDS011;5719;42.714;23.732;2023-04-06T07:23:05;24.38;;;15.00;;
11328;SDS011;5719;42.714;23.732;2023-04-06T07:25:34;23.38;;;15.07;;
11328;SDS011;5719;42.714;23.732;2023-04-06T07:28:01;25.52;;;14.48;;
11328;SDS011;5719;42.714;23.732;2023-04-06T07:30:28;24.98;;;14.50;;
11328;SDS011;5719;42.714;23.732;2023-04-06T07:32:56;21.55;;;13.98;;
11328;SDS011;5719;42.714;23.732;2023-04-06T07:35:24;21.58;;;13.85;;
11328;SDS011;5719;42.714;23.732;2023-04-06T07:37:52;21.30;;;14.23;;
11328;SDS011;5719;42.714;23.732;2023-04-06T07:40:20;23.35;;;13.77;;
11328;SDS011;5719;42.714;23.732;2023-04-06T07:42:48;23.83;;;13.98;;
11328;SDS011;5719;42.714;23.732;2023-04-06T07:45:15;25.98;;;13.77;;
11328;SDS011;5719;42.714;23.732;2023-04-06T07:47:45;26.63;;;14.65;;
11328;SDS011;5719;42.714;23.732;2023-04-06T07:50:12;23.85;;;14.73;;
11328;SDS011;5719;42.714;23.732;2023-04-06T07:52:39;23.50;;;15.05;;
11328;SDS011;5719;42.714;23.732;2023-04-06T07:55:07;24.85;;;15.77;;
11328;SDS011;5719;42.714;23.732;2023-04-06T07:57:34;21.33;;;14.00;;
11328;SDS011;5719;42.714;23.732;2023-04-06T08:00:03;26.15;;;15.18;;
11328;SDS011;5719;42.714;23.732;2023-04-06T08:02:31;22.35;;;14.60;;
11328;SDS011;5719;42.714;23.732;2023-04-06T08:04:58;23.63;;;14.63;;
11328;SDS011;5719;42.714;23.732;2023-04-06T08:07:25;23.08;;;14.68;;
11328;SDS011;5719;42.714;23.732;2023-04-06T08:09:52;24.23;;;15.38;;
11328;SDS011;5719;42.714;23.732;2023-04-06T08:12:19;26.13;;;16.33;;
11328;SDS011;5719;42.714;23.732;2023-04-06T08:14:47;27.02;;;15.68;;
11328;SDS011;5719;42.714;23.732;2023-04-06T08:17:15;25.48;;;14.98;;
11328;SDS011;5719;42.714;23.732;2023-04-06T08:19:42;23.80;;;14.88;;
11328;SDS011;5719;42.714;23.732;2023-04-06T08:22:10;25.88;;;14.82;;
11328;SDS011;5719;42.714;23.732;2023-04-06T08:24:37;38.83;;;20.35;;
11328;SDS011;5719;42.714;23.732;2023-04-06T08:27:04;24.35;;;14.35;;
11328;SDS011;5719;42.714;23.732;2023-04-06T08:29:31;22.48;;;13.48;;
11328;SDS011;5719;42.714;23.732;2023-04-06T08:31:58;22.92;;;14.43;;
11328;SDS011;5719;42.714;23.732;2023-04-06T08:34:26;28.85;;;16.75;;
11328;SDS011;5719;42.714;23.732;2023-04-06T08:36:53;26.67;;;16.40;;
11328;SDS011;5719;42.714;23.732;2023-04-06T08:39:20;28.17;;;15.50;;
11328;SDS011;5719;42.714;23.732;2023-04-06T08:41:52;24.73;;;13.43;;
11328;SDS011;5719;42.714;23.732;2023-04-06T08:44:22;21.85;;;13.40;;
11328;SDS011;5719;42.714;23.732;2023-04-06T08:46:49;24.30;;;14.50;;
11328;SDS011;5719;42.714;23.732;2023-04-06T08:49:18;19.67;;;14.00;;
11328;SDS011;5719;42.714;23.732;2023-04-06T08:51:46;19.80;;;12.98;;
11328;SDS011;5719;42.714;23.732;2023-04-06T08:54:13;21.40;;;14.55;;
11328;SDS011;5719;42.714;23.732;2023-04-06T08:56:41;23.95;;;13.85;;
11328;SDS011;5719;42.714;23.732;2023-04-06T08:59:09;21.42;;;12.35;;
11328;SDS011;5719;42.714;23.732;2023-04-06T09:01:38;19.73;;;12.10;;
11328;SDS011;5719;42.714;23.732;2023-04-06T09:04:07;16.42;;;11.50;;
11328;SDS011;5719;42.714;23.732;2023-04-06T09:06:36;18.65;;;11.60;;
11328;SDS011;5719;42.714;23.732;2023-04-06T09:09:04;19.17;;;11.77;;
11328;SDS011;5719;42.714;23.732;2023-04-06T09:11:41;24.52;;;11.05;;
11328;SDS011;5719;42.714;23.732;2023-04-06T09:14:12;19.65;;;11.88;;
11328;SDS011;5719;42.714;23.732;2023-04-06T09:16:39;22.80;;;13.43;;
11328;SDS011;5719;42.714;23.732;2023-04-06T09:19:07;18.75;;;12.15;;
11328;SDS011;5719;42.714;23.732;2023-04-06T09:21:34;21.77;;;13.30;;
11328;SDS011;5719;42.714;23.732;2023-04-06T09:24:02;16.42;;;10.90;;
11328;SDS011;5719;42.714;23.732;2023-04-06T09:26:31;20.92;;;11.38;;
11328;SDS011;5719;42.714;23.732;2023-04-06T09:28:59;16.17;;;12.43;;
11328;SDS011;5719;42.714;23.732;2023-04-06T09:31:27;19.73;;;12.07;;
11328;SDS011;5719;42.714;23.732;2023-04-06T09:33:55;18.17;;;12.18;;
11328;SDS011;5719;42.714;23.732;2023-04-06T09:36:33;21.70;;;12.13;;
11328;SDS011;5719;42.714;23.732;2023-04-06T09:39:04;16.60;;;11.27;;
11328;SDS011;5719;42.714;23.732;2023-04-06T09:41:33;15.05;;;11.18;;
11328;SDS011;5719;42.714;23.732;2023-04-06T09:44:01;15.13;;;10.18;;
11328;SDS011;5719;42.714;23.732;2023-04-06T09:46:30;22.55;;;11.00;;
11328;SDS011;5719;42.714;23.732;2023-04-06T09:48:59;14.75;;;10.98;;
11328;SDS011;5719;42.714;23.732;2023-04-06T09:51:28;14.48;;;10.20;;
11328;SDS011;5719;42.714;23.732;2023-04-06T09:53:58;20.13;;;10.00;;
11328;SDS011;5719;42.714;23.732;2023-04-06T09:56:28;13.35;;;10.70;;
11328;SDS011;5719;42.714;23.732;2023-04-06T09:59:05;12.77;;;9.57;;
11328;SDS011;5719;42.714;23.732;2023-04-06T10:01:37;13.83;;;10.33;;
11328;SDS011;5719;42.714;23.732;2023-04-06T10:04:08;14.88;;;9.88;;
11328;SDS011;5719;42.714;23.732;2023-04-06T10:06:45;14.63;;;10.52;;
11328;SDS011;5719;42.714;23.732;2023-04-06T10:09:17;12.23;;;9.10;;
11328;SDS011;5719;42.714;23.732;2023-04-06T10:11:50;14.07;;;9.63;;
11328;SDS011;5719;42.714;23.732;2023-04-06T10:14:17;14.85;;;9.68;;
11328;SDS011;5719;42.714;23.732;2023-04-06T10:16:44;16.08;;;9.32;;
11328;SDS011;5719;42.714;23.732;2023-04-06T10:19:15;16.08;;;10.65;;
11328;SDS011;5719;42.714;23.732;2023-04-06T10:21:48;19.92;;;11.30;;
11328;SDS011;5719;42.714;23.732;2023-04-06T10:24:19;16.98;;;9.60;;
11328;SDS011;5719;42.714;23.732;2023-04-06T10:26:57;14.38;;;10.60;;
11328;SDS011;5719;42.714;23.732;2023-04-06T10:29:25;17.05;;;9.40;;
11328;SDS011;5719;42.714;23.732;2023-04-06T10:31:52;15.95;;;9.90;;
11328;SDS011;5719;42.714;23.732;2023-04-06T10:34:20;14.75;;;8.98;;
11328;SDS011;5719;42.714;23.732;2023-04-06T10:36:47;17.00;;;10.10;;
11328;SDS011;5719;42.714;23.732;2023-04-06T10:39:14;16.83;;;9.15;;
11328;SDS011;5719;42.714;23.732;2023-04-06T10:41:52;11.40;;;8.70;;
11328;SDS011;5719;42.714;23.732;2023-04-06T10:44:21;17.45;;;10.00;;
11328;SDS011;5719;42.714;23.732;2023-04-06T10:46:52;14.15;;;9.38;;
11328;SDS011;5719;42.714;23.732;2023-04-06T10:49:20;14.25;;;9.57;;
11328;SDS011;5719;42.714;23.732;2023-04-06T10:51:51;12.77;;;9.30;;
11328;SDS011;5719;42.714;23.732;2023-04-06T10:54:20;12.13;;;9.55;;
11328;SDS011;5719;42.714;23.732;2023-04-06T10:56:48;20.70;;;10.10;;
11328;SDS011;5719;42.714;23.732;2023-04-06T10:59:18;17.33;;;9.82;;
11328;SDS011;5719;42.714;23.732;2023-04-06T11:01:47;17.60;;;10.55;;
11328;SDS011;5719;42.714;23.732;2023-04-06T11:04:15;17.42;;;11.50;;
11328;SDS011;5719;42.714;23.732;2023-04-06T11:06:46;10.25;;;8.77;;
11328;SDS011;5719;42.714;23.732;2023-04-06T11:09:22;14.68;;;9.25;;
11328;SDS011;5719;42.714;23.732;2023-04-06T11:11:51;13.80;;;8.50;;
11328;SDS011;5719;42.714;23.732;2023-04-06T11:14:18;14.02;;;9.48;;
11328;SDS011;5719;42.714;23.732;2023-04-06T11:16:47;13.68;;;10.07;;
11328;SDS011;5719;42.714;23.732;2023-04-06T11:19:16;12.50;;;8.48;;
11328;SDS011;5719;42.714;23.732;2023-04-06T11:21:44;12.38;;;8.82;;
11328;SDS011;5719;42.714;23.732;2023-04-06T11:24:14;13.27;;;8.32;;
11328;SDS011;5719;42.714;23.732;2023-04-06T11:26:42;12.38;;;8.20;;
11328;SDS011;5719;42.714;23.732;2023-04-06T11:29:11;11.30;;;8.10;;
11328;SDS011;5719;42.714;23.732;2023-04-06T11:31:39;10.85;;;8.30;;
11328;SDS011;5719;42.714;23.732;2023-04-06T11:34:12;12.15;;;8.13;;
11328;SDS011;5719;42.714;23.732;2023-04-06T11:36:42;13.07;;;7.97;;
11328;SDS011;5719;42.714;23.732;2023-04-06T11:39:10;12.10;;;8.00;;
11328;SDS011;5719;42.714;23.732;2023-04-06T11:41:38;16.23;;;8.45;;
11328;SDS011;5719;42.714;23.732;2023-04-06T11:44:06;14.30;;;7.95;;
11328;SDS011;5719;42.714;23.732;2023-04-06T11:46:33;10.75;;;8.13;;
11328;SDS011;5719;42.714;23.732;2023-04-06T11:49:00;10.27;;;7.72;;
11328;SDS011;5719;42.714;23.732;2023-04-06T11:51:29;11.95;;;8.30;;
11328;SDS011;5719;42.714;23.732;2023-04-06T11:53:56;10.27;;;7.93;;
11328;SDS011;5719;42.714;23.732;2023-04-06T11:56:24;16.25;;;7.57;;
11328;SDS011;5719;42.714;23.732;2023-04-06T11:58:52;9.52;;;7.32;;
11328;SDS011;5719;42.714;23.732;2023-04-06T12:01:20;10.52;;;7.00;;
11328;SDS011;5719;42.714;23.732;2023-04-06T12:03:47;10.95;;;7.25;;
11328;SDS011;5719;42.714;23.732;2023-04-06T12:06:14;10.88;;;7.57;;
11328;SDS011;5719;42.714;23.732;2023-04-06T12:08:43;13.90;;;9.02;;
11328;SDS011;5719;42.714;23.732;2023-04-06T12:11:10;11.00;;;8.35;;
11328;SDS011;5719;42.714;23.732;2023-04-06T12:13:37;10.60;;;6.82;;
11328;SDS011;5719;42.714;23.732;2023-04-06T12:16:04;10.77;;;7.00;;
11328;SDS011;5719;42.714;23.732;2023-04-06T12:18:31;8.52;;;6.90;;
11328;SDS011;5719;42.714;23.732;2023-04-06T12:20:58;8.95;;;6.82;;
11328;SDS011;5719;42.714;23.732;2023-04-06T12:23:25;9.77;;;7.15;;
11328;SDS011;5719;42.714;23.732;2023-04-06T12:25:54;7.07;;;6.35;;
11328;SDS011;5719;42.714;23.732;2023-04-06T12:28:21;10.05;;;8.30;;
11328;SDS011;5719;42.714;23.732;2023-04-06T12:30:52;9.82;;;7.10;;
11328;SDS011;5719;42.714;23.732;2023-04-06T12:33:19;9.95;;;7.05;;
11328;SDS011;5719;42.714;23.732;2023-04-06T12:35:46;11.23;;;6.63;;
11328;SDS011;5719;42.714;23.732;2023-04-06T12:38:13;13.43;;;6.53;;
11328;SDS011;5719;42.714;23.732;2023-04-06T12:40:40;9.35;;;6.55;;
11328;SDS011;5719;42.714;23.732;2023-04-06T12:43:08;9.38;;;6.65;;
11328;SDS011;5719;42.714;23.732;2023-04-06T12:45:35;8.93;;;6.68;;
11328;SDS011;5719;42.714;23.732;2023-04-06T12:48:02;9.77;;;6.97;;
11328;SDS011;5719;42.714;23.732;2023-04-06T12:50:29;11.43;;;7.22;;
11328;SDS011;5719;42.714;23.732;2023-04-06T12:52:56;12.52;;;7.82;;
11328;SDS011;5719;42.714;23.732;2023-04-06T12:55:23;10.48;;;7.25;;
11328;SDS011;5719;42.714;23.732;2023-04-06T12:57:51;11.60;;;7.45;;
11328;SDS011;5719;42.714;23.732;2023-04-06T13:00:21;7.85;;;6.00;;
11328;SDS011;5719;42.714;23.732;2023-04-06T13:02:48;12.65;;;6.82;;
11328;SDS011;5719;42.714;23.732;2023-04-06T13:05:15;12.07;;;7.32;;
11328;SDS011;5719;42.714;23.732;2023-04-06T13:07:44;11.65;;;7.07;;
11328;SDS011;5719;42.714;23.732;2023-04-06T13:10:12;8.63;;;6.68;;
11328;SDS011;5719;42.714;23.732;2023-04-06T13:12:40;8.98;;;6.68;;
11328;SDS011;5719;42.714;23.732;2023-04-06T13:15:07;7.65;;;6.13;;
11328;SDS011;5719;42.714;23.732;2023-04-06T13:17:36;9.65;;;5.97;;
11328;SDS011;5719;42.714;23.732;2023-04-06T13:20:03;9.43;;;5.97;;
11328;SDS011;5719;42.714;23.732;2023-04-06T13:22:31;9.40;;;6.60;;
11328;SDS011;5719;42.714;23.732;2023-04-06T13:24:59;8.82;;;6.38;;
11328;SDS011;5719;42.714;23.732;2023-04-06T13:27:26;10.32;;;6.88;;
11328;SDS011;5719;42.714;23.732;2023-04-06T13:29:53;9.02;;;6.53;;
11328;SDS011;5719;42.714;23.732;2023-04-06T13:32:22;8.50;;;6.38;;
11328;SDS011;5719;42.714;23.732;2023-04-06T13:34:51;10.50;;;6.22;;
11328;SDS011;5719;42.714;23.732;2023-04-06T13:37:21;8.18;;;6.43;;
11328;SDS011;5719;42.714;23.732;2023-04-06T13:39:48;12.60;;;8.65;;
11328;SDS011;5719;42.714;23.732;2023-04-06T13:42:15;11.48;;;7.50;;
11328;SDS011;5719;42.714;23.732;2023-04-06T13:44:42;11.20;;;6.72;;
11328;SDS011;5719;42.714;23.732;2023-04-06T13:47:11;9.55;;;6.32;;
11328;SDS011;5719;42.714;23.732;2023-04-06T13:49:39;9.15;;;6.80;;
11328;SDS011;5719;42.714;23.732;2023-04-06T13:52:08;10.77;;;6.60;;
11328;SDS011;5719;42.714;23.732;2023-04-06T13:54:36;9.77;;;6.63;;
11328;SDS011;5719;42.714;23.732;2023-04-06T13:57:03;9.57;;;6.40;;
11328;SDS011;5719;42.714;23.732;2023-04-06T13:59:32;12.52;;;8.63;;
11328;SDS011;5719;42.714;23.732;2023-04-06T14:02:00;7.70;;;6.22;;
11328;SDS011;5719;42.714;23.732;2023-04-06T14:04:27;9.73;;;6.90;;
11328;SDS011;5719;42.714;23.732;2023-04-06T14:06:54;15.88;;;8.60;;
11328;SDS011;5719;42.714;23.732;2023-04-06T14:09:23;10.52;;;7.47;;
11328;SDS011;5719;42.714;23.732;2023-04-06T14:11:50;12.20;;;7.38;;
11328;SDS011;5719;42.714;23.732;2023-04-06T14:14:17;15.25;;;9.02;;
11328;SDS011;5719;42.714;23.732;2023-04-06T14:16:44;10.95;;;7.50;;
11328;SDS011;5719;42.714;23.732;2023-04-06T14:19:13;12.75;;;7.60;;
11328;SDS011;5719;42.714;23.732;2023-04-06T14:21:42;10.50;;;6.93;;
11328;SDS011;5719;42.714;23.732;2023-04-06T14:24:10;10.93;;;7.07;;
11328;SDS011;5719;42.714;23.732;2023-04-06T14:26:39;11.50;;;7.63;;
11328;SDS011;5719;42.714;23.732;2023-04-06T14:29:08;10.60;;;7.13;;